createdAt,value
2019-02-21T00:02:24.183Z,96428.22
2019-02-21T00:07:21.270Z,96429.20
2019-02-21T00:12:18.403Z,96429.05
2019-02-21T00:17:17.226Z,96436.73
2019-02-21T00:22:14.296Z,96438.54
2019-02-21T00:27:11.259Z,96436.34
2019-02-21T00:32:08.483Z,96432.58
2019-02-21T00:37:05.520Z,96440.22
2019-02-21T00:42:03.451Z,96437.84
2019-02-21T00:47:00.604Z,96438.11
2019-02-21T00:51:58.697Z,96443.25
2019-02-21T00:56:56.807Z,96446.33
2019-02-21T01:01:53.859Z,96445.59
2019-02-21T01:06:51.070Z,96442.52
2019-02-21T01:11:48.135Z,96446.55
2019-02-21T01:16:45.237Z,96443.84
2019-02-21T01:21:42.151Z,96443.45
2019-02-21T01:26:39.214Z,96439.20
2019-02-21T01:31:36.279Z,96444.34
2019-02-21T01:36:35.814Z,96439.19
2019-02-21T01:41:32.851Z,96437.84
2019-02-21T01:46:29.877Z,96440.89
2019-02-21T01:51:26.814Z,96433.47
2019-02-21T01:56:23.979Z,96444.52
2019-02-21T02:01:20.927Z,96444.66
2019-02-21T02:06:18.029Z,96455.04
2019-02-21T02:11:15.108Z,96454.86
2019-02-21T02:16:12.128Z,96459.75
2019-02-21T02:21:11.288Z,96460.53
2019-02-21T02:26:10.311Z,96459.31
2019-02-21T02:31:07.268Z,96465.98
2019-02-21T02:36:04.291Z,96473.12
2019-02-21T02:41:01.330Z,96483.41
2019-02-21T02:45:58.464Z,96477.46
2019-02-21T02:50:55.501Z,96482.63
2019-02-21T02:55:54.528Z,96482.35
2019-02-21T03:00:51.541Z,96485.78
2019-02-21T03:05:48.526Z,96490.95
2019-02-21T03:10:45.608Z,96492.67
2019-02-21T03:15:42.620Z,96493.83
2019-02-21T03:20:39.629Z,96493.66
2019-02-21T03:25:36.921Z,96493.91
2019-02-21T03:30:34.096Z,96497.66
2019-02-21T03:35:33.040Z,96498.09
2019-02-21T03:40:31.169Z,96502.08
2019-02-21T03:45:28.373Z,96497.77
2019-02-21T03:50:25.440Z,96494.44
2019-02-21T03:55:22.544Z,96485.80
2019-02-21T04:00:21.016Z,96480.03
2019-02-21T04:05:20.671Z,96487.19
2019-02-21T04:10:17.799Z,96475.41
2019-02-21T04:15:14.795Z,96482.42
2019-02-21T04:20:11.724Z,96481.67
2019-02-21T04:25:08.794Z,96486.20
2019-02-21T04:30:06.602Z,96489.19
2019-02-21T04:35:04.415Z,96478.29
2019-02-21T04:40:01.485Z,96478.11
2019-02-21T04:44:58.549Z,96478.11
2019-02-21T04:49:55.558Z,96474.00
2019-02-21T04:54:52.724Z,96472.18
2019-02-21T04:59:51.685Z,96479.67
2019-02-21T05:04:48.814Z,96485.19
2019-02-21T05:09:56.965Z,96481.94
2019-02-21T05:14:44.857Z,96485.73
2019-02-21T05:19:41.901Z,96479.67
2019-02-21T05:24:38.969Z,96477.78
2019-02-21T05:29:36.024Z,96488.25
2019-02-21T05:34:43.624Z,96485.96
2019-02-21T05:39:43.230Z,96497.02
2019-02-21T05:45:00.902Z,96498.05
2019-02-21T05:50:00.832Z,96496.94
2019-02-21T05:55:02.825Z,96499.25
2019-02-21T06:00:13.517Z,96501.20
2019-02-21T06:05:19.547Z,96499.31
2019-02-21T06:10:20.473Z,96500.70
2019-02-21T06:15:29.951Z,96505.42
2019-02-21T06:20:28.913Z,96503.41
2019-02-21T06:25:30.064Z,96509.63
2019-02-21T06:30:31.559Z,96507.31
2019-02-21T06:35:28.541Z,96506.44
2019-02-21T06:40:25.570Z,96516.97
2019-02-21T06:45:24.450Z,96513.91
2019-02-21T06:50:26.738Z,96511.51
2019-02-21T06:55:20.727Z,96528.04
2019-02-21T07:00:19.905Z,96519.77
2019-02-21T07:05:19.657Z,96519.80
2019-02-21T07:10:16.716Z,96525.99
2019-02-21T07:15:15.118Z,96525.19
2019-02-21T07:20:14.197Z,96521.75
2019-02-21T07:25:22.119Z,96515.27
2019-02-21T07:30:23.058Z,96510.27
2019-02-21T07:35:20.186Z,96520.28
2019-02-21T07:40:20.163Z,96522.71
2019-02-21T07:45:16.612Z,96517.21
2019-02-21T07:50:13.724Z,96513.88
2019-02-21T07:55:13.249Z,96523.75
2019-02-21T08:00:11.878Z,96540.13
2019-02-21T08:05:10.190Z,96526.06
2019-02-21T08:10:10.624Z,96520.38
2019-02-21T08:15:11.988Z,96529.43
2019-02-21T08:20:11.245Z,96531.42
2019-02-21T08:25:11.926Z,96515.03
2019-02-21T08:30:13.603Z,96520.05
2019-02-21T08:35:10.627Z,96536.42
2019-02-21T08:40:07.668Z,96528.92
2019-02-21T08:45:10.587Z,96541.08
2019-02-21T08:50:07.742Z,96547.63
2019-02-21T08:55:05.244Z,96553.80
2019-02-21T09:00:05.457Z,96553.45
2019-02-21T09:05:03.075Z,96565.66
2019-02-21T09:10:01.201Z,96571.31
2019-02-21T09:15:01.000Z,96577.48
2019-02-21T09:20:02.045Z,96576.41
2019-02-21T09:25:02.635Z,96570.02
2019-02-21T09:29:58.923Z,96568.40
2019-02-21T09:34:58.820Z,96574.30
2019-02-21T09:40:01.377Z,96569.26
2019-02-21T09:44:57.769Z,96567.77
2019-02-21T09:49:56.498Z,96568.34
2019-02-21T09:54:57.932Z,96573.21
2019-02-21T09:59:57.870Z,96562.06
2019-02-21T10:05:04.576Z,96567.66
2019-02-21T10:09:54.000Z,96566.29
2019-02-21T10:14:51.140Z,96551.67
2019-02-21T10:19:48.213Z,96550.58
2019-02-21T10:24:45.335Z,96543.28
2019-02-21T10:29:42.393Z,96533.97
2019-02-21T10:34:43.377Z,96530.31
2019-02-21T10:39:44.158Z,96531.07
2019-02-21T10:44:41.283Z,96518.06
2019-02-21T10:49:41.793Z,96523.06
2019-02-21T10:54:38.715Z,96506.03
2019-02-21T10:59:46.629Z,96498.01
2019-02-21T11:04:38.131Z,96494.94
2019-02-21T11:09:37.147Z,96489.34
2019-02-21T11:14:47.283Z,96490.45
2019-02-21T11:19:36.217Z,96485.23
2019-02-21T11:24:33.343Z,96472.36
2019-02-21T11:29:30.540Z,96473.40
2019-02-21T11:34:27.564Z,96466.36
2019-02-21T11:39:24.714Z,96460.88
2019-02-21T11:44:23.844Z,96461.66
2019-02-21T11:49:20.946Z,96455.69
2019-02-21T11:54:26.523Z,96458.72
2019-02-21T11:59:17.249Z,96445.16
2019-02-21T12:04:14.412Z,96426.98
2019-02-21T12:09:12.525Z,96437.45
2019-02-21T12:14:11.688Z,96423.12
2019-02-21T12:19:08.794Z,96418.41
2019-02-21T12:24:08.859Z,96418.61
2019-02-21T12:29:07.795Z,96418.59
2019-02-21T12:34:04.810Z,96419.13
2019-02-21T12:39:01.973Z,96408.08
2019-02-21T12:43:58.934Z,96399.23
2019-02-21T12:48:56.118Z,96402.85
2019-02-21T12:53:54.251Z,96400.75
2019-02-21T12:58:51.430Z,96398.47
2019-02-21T13:03:48.500Z,96397.73
2019-02-21T13:08:47.533Z,96400.33
2019-02-21T13:13:44.536Z,96399.66
2019-02-21T13:18:46.517Z,96392.44
2019-02-21T13:23:45.473Z,96390.07
2019-02-21T13:28:43.059Z,96382.86
2019-02-21T13:33:40.100Z,96377.56
2019-02-21T13:38:37.335Z,96368.56
2019-02-21T13:43:34.373Z,96373.45
2019-02-21T13:48:31.521Z,96377.62
2019-02-21T13:53:28.509Z,96372.94
2019-02-21T13:58:27.574Z,96367.51
2019-02-21T14:03:24.867Z,96362.28
2019-02-21T14:08:23.355Z,96360.52
2019-02-21T14:13:20.566Z,96365.78
2019-02-21T14:18:18.023Z,96358.60
2019-02-21T14:23:15.171Z,96358.37
2019-02-21T14:28:12.637Z,96351.27
2019-02-21T14:33:09.753Z,96344.77
2019-02-21T14:38:10.062Z,96340.66
2019-02-21T14:43:07.186Z,96339.92
2019-02-21T14:48:04.219Z,96340.23
2019-02-21T14:53:01.258Z,96333.52
2019-02-21T14:57:58.498Z,96325.84
2019-02-21T15:02:57.639Z,96314.87
2019-02-21T15:08:04.415Z,96309.27
2019-02-21T15:13:00.671Z,96303.73
2019-02-21T15:18:06.840Z,96307.56
2019-02-21T15:22:56.868Z,96297.28
2019-02-21T15:27:55.845Z,96297.00
2019-02-21T15:32:52.820Z,96290.20
2019-02-21T15:37:50.079Z,96293.30
2019-02-21T15:42:47.185Z,96289.77
2019-02-21T15:47:48.165Z,96287.43
2019-02-21T15:52:46.116Z,96291.34
2019-02-21T15:57:44.148Z,96300.25
2019-02-21T16:02:41.206Z,96297.09
2019-02-21T16:07:38.324Z,96290.34
2019-02-21T16:12:35.371Z,96296.52
2019-02-21T16:17:37.273Z,96299.18
2019-02-21T16:22:33.350Z,96290.90
2019-02-21T16:27:30.458Z,96294.92
2019-02-21T16:32:27.711Z,96297.61
2019-02-21T16:37:24.829Z,96297.59
2019-02-21T16:42:24.649Z,96296.78
2019-02-21T16:47:21.769Z,96299.31
2019-02-21T16:52:18.850Z,96300.61
2019-02-21T16:57:16.031Z,96306.99
2019-02-21T17:02:13.126Z,96310.64
2019-02-21T17:07:13.724Z,96307.31
2019-02-21T17:12:09.617Z,96302.62
2019-02-21T17:17:06.717Z,96303.03
2019-02-21T17:22:06.479Z,96310.34
2019-02-21T17:27:03.556Z,96306.02
2019-02-21T17:32:00.932Z,96308.03
2019-02-21T17:36:58.087Z,96313.71
2019-02-21T17:41:55.174Z,96299.70
2019-02-21T17:46:52.260Z,96307.55
2019-02-21T17:51:49.212Z,96312.73
2019-02-21T17:56:46.786Z,96296.87
2019-02-21T18:01:43.821Z,96303.03
2019-02-21T18:06:40.902Z,96291.02
2019-02-21T18:11:37.915Z,96293.87
2019-02-21T18:16:35.484Z,96291.86
2019-02-21T18:21:32.525Z,96283.03
2019-02-21T18:26:31.802Z,96281.68
2019-02-21T18:31:28.506Z,96278.38
2019-02-21T18:36:25.599Z,96269.52
2019-02-21T18:41:22.650Z,96275.20
2019-02-21T18:46:19.684Z,96278.03
2019-02-21T18:51:18.859Z,96282.37
2019-02-21T18:56:16.159Z,96284.05
2019-02-21T19:01:24.039Z,96279.36
2019-02-21T19:06:29.722Z,96286.36
2019-02-21T19:11:31.203Z,96282.16
2019-02-21T19:16:32.453Z,96272.84
2019-02-21T19:21:38.479Z,96270.34
2019-02-21T19:26:42.268Z,96274.70
2019-02-21T19:31:49.468Z,96262.69
2019-02-21T19:36:50.797Z,96263.00
2019-02-21T19:41:48.382Z,96252.50
2019-02-21T19:46:48.621Z,96246.35
2019-02-21T19:51:58.218Z,96255.31
2019-02-21T19:57:02.329Z,96246.98
2019-02-21T20:02:16.805Z,96235.81
2019-02-21T20:07:27.544Z,96228.66
2019-02-21T20:12:28.704Z,96219.34
2019-02-21T20:17:34.815Z,96207.68
2019-02-21T20:22:45.852Z,96201.84
2019-02-21T20:33:13.398Z,96190.67
2019-02-21T22:03:07.601Z,96116.64
2019-02-21T22:13:53.615Z,96108.82
2019-02-21T22:19:03.776Z,96104.13
2019-02-21T22:24:17.472Z,96111.31
2019-02-21T22:35:19.958Z,96103.83
2019-02-21T22:46:32.203Z,96108.34
2019-02-21T22:51:46.004Z,96101.00
2019-02-21T23:14:50.857Z,96086.75
2019-02-21T23:20:03.183Z,96075.16
2019-02-21T23:30:46.320Z,96074.53
2019-02-21T23:36:19.304Z,96064.28
2019-02-21T23:47:49.407Z,96055.27
2019-02-21T23:53:05.659Z,96055.41
